• Join FlightAware (Why Join?)
  • Login
  • US Flag 
06:31AM EDT


 

Airport Tracker/Info


-or-


 

Live Flight TrackerFlight Track Log ✈ UAL3740 ✈ 17-Apr-2013 ✈ KPVD - KIAD

Flight Track Log - Related Links

Times and Time Zones

All times are in EDT time to prevent confusion due to time zone crossing. See the UAL3740 flight status page for this flight to view local times or setup timezone preferences in your user account.

Time Position Orientation Groundspeed Altitude Reporting Facility
EDT Latitude Longitude Course Direction KTS MPH feet Rate Location/Type
10:16AM 41.7853 -71.4406 342° North 168 193 3,000  Level Boston Center
10:17AM 41.8236 -71.5181 304° West 220 253 6,000 2,760 Climbing Boston Center
10:18AM 41.8511 -71.5872 298° West 237 273 8,600 2,400 Climbing Boston Center
10:19AM 41.8767 -71.6733 292° West 249 287 10,900 2,040 Climbing Boston Center
10:20AM 41.8858 -71.7931 276° West 285 328 12,800 2,100 Climbing Boston Center
10:21AM 41.8906 -71.9158 273° West 323 372 15,100 2,160 Climbing Boston Center
10:22AM 41.8975 -72.0328 275° West 328 377 17,100 1,740 Climbing Boston Center
10:23AM 41.9042 -72.1556 274° West 328 377 19,000 1,620 Climbing Boston Center
10:24AM 41.9125 -72.2922 275° West 328 377 20,800 1,680 Climbing Boston Center
10:25AM 41.9211 -72.4233 275° West 339 390 22,400 1,380 Climbing Boston Center
10:26AM 41.9272 -72.5544 274° West 350 403 23,700 1,320 Climbing Boston Center
10:27AM 41.9353 -72.6883 275° West 356 410 25,100 1,320 Climbing Boston Center
10:28AM 41.9453 -72.8253 276° West 367 422 26,400 1,320 Climbing Boston Center
10:29AM 41.9117 -72.9533 251° West 372 428 27,800 1,200 Climbing Boston Center
10:30AM 41.8400 -73.0811 233° Southwest 387 445 28,800 1,320 Climbing Boston Center
10:31AM 41.7728 -73.1917 231° Southwest 387 445 30,500 1,380 Climbing Boston Center
10:32AM 41.7031 -73.3019 230° Southwest 392 451 31,700 540 Climbing Boston Center
10:33AM 41.5947 -73.4842 232° Southwest 393 452 32,000 60 Climbing New York Center
10:34AM 41.5233 -73.6003 231° Southwest 399 459 32,000  Level New York Center
10:35AM 41.4519 -73.7161 231° Southwest 405 466 32,000  Level New York Center
10:36AM 41.3800 -73.8347 231° Southwest 411 473 32,000  Level New York Center
10:37AM 41.3061 -73.9583 232° Southwest 418 481 32,000  Level New York Center
10:38AM 41.2319 -74.0761 230° Southwest 418 481 32,000  Level New York Center
10:39AM 41.1578 -74.1964 231° Southwest 418 481 32,000 -300 Level New York Center
10:40AM 41.0792 -74.3136 228° Southwest 418 481 31,400 -840 Descending New York Center
10:41AM 41.0028 -74.4333 230° Southwest 423 487 30,300 -1,020 Descending New York Center
10:42AM 40.9303 -74.5503 231° Southwest 423 487 29,400 -1,020 Descending New York Center
10:43AM 40.8803 -74.6819 243° Southwest 408 470 28,400 -720 Descending New York Center
10:44AM 40.8383 -74.8111 247° West 397 457 28,000 -240 Descending New York Center
10:45AM 40.7939 -74.9483 247° West 397 457 28,000  Level New York Center
10:46AM 40.7517 -75.0828 248° West 402 463 28,000 -660 Level New York Center
10:47AM 40.7133 -75.2144 249° West 402 463 26,700 -1,680 Descending New York Center
10:48AM 40.6708 -75.3458 247° West 402 463 24,700 -1,980 Descending New York Center
10:49AM 40.6200 -75.4708 242° Southwest 402 463 22,800 -2,040 Descending New York Center
10:50AM 40.5692 -75.5986 242° Southwest 402 463 20,800 -1,440 Descending New York Center
10:51AM 40.4978 -75.7083 229° Southwest 396 456 20,000 -420 Descending New York Center
10:52AM 40.4286 -75.8178 230° Southwest 396 456 20,000  Level New York Center
10:53AM 40.3619 -75.9164 228° Southwest 410 472 20,000  Level New York Center
10:54AM 40.2881 -76.0308 230° Southwest 415 478 20,000  Level New York Center
10:55AM 40.2161 -76.1450 230° Southwest 415 478 20,000 -840 Level New York Center
10:56AM 40.1422 -76.2558 229° Southwest 415 478 18,400 -1,560 Descending New York Center
10:58AM 40.0167 -76.5333 239° Southwest 395 455 15,300 -1,140 Descending Potomac TRACON
10:59AM 39.9500 -76.6500 233° Southwest 387 445 15,000 -180 Descending Potomac TRACON
11:00AM 39.9000 -76.7667 241° Southwest 388 447 15,000  Level Potomac TRACON
11:01AM 39.8500 -76.8833 241° Southwest 386 444 15,100 -240 Climbing Potomac TRACON
11:02AM 39.8000 -77.0000 241° Southwest 385 443 14,600 -1,320 Descending Potomac TRACON
11:03AM 39.7333 -77.1167 233° Southwest 378 435 12,500 -2,040 Descending Potomac TRACON
11:04AM 39.6833 -77.2167 237° Southwest 368 423 10,600 -1,320 Descending Potomac TRACON
11:05AM 39.6333 -77.3167 237° Southwest 313 360 9,900 -720 Descending Potomac TRACON
11:06AM 39.5667 -77.3500 201° Southwest 295 339 9,200 -900 Descending Potomac TRACON
11:07AM 39.4833 -77.3500 180° South 289 333 8,100 -1,140 Descending Potomac TRACON
11:08AM 39.4000 -77.3667 189° South 290 334 7,100 -1,140 Descending Potomac TRACON
11:09AM 39.3167 -77.3667 180° South 288 331 5,900 -1,080 Descending Potomac TRACON
11:10AM 39.2500 -77.3667 180° South 269 310 4,900 -900 Descending Potomac TRACON
11:11AM 39.1667 -77.3667 180° South 267 307 4,100 -420 Descending Potomac TRACON
11:12AM 39.1000 -77.3500 169° South 273 314 4,100 -120 Level Potomac TRACON
11:13AM 39.0167 -77.3500 180° South 271 312 3,900 -540 Descending Potomac TRACON
11:14AM 38.9500 -77.3500 180° South 262 302 3,100 -420 Descending Potomac TRACON
11:15AM 38.8833 -77.3500 180° South 241 277 3,100 -480 Level Potomac TRACON
11:16AM 38.8167 -77.3667 191° South 245 282 2,200 -600 Descending Potomac TRACON
11:17AM 38.7833 -77.4167 229° Southwest 209 241 2,000 -60 Descending Potomac TRACON
11:18AM 38.8167 -77.4333 339° North 188 216 2,100 -240 Climbing Potomac TRACON
11:19AM 38.8667 -77.4333 360° North 143 165 1,600 -660 Descending Potomac TRACON
11:20AM 38.9000 -77.4333 360° North 136 157 800 -780 Descending Potomac TRACON
11:22AM 38.9333 -77.4500 349° North  Level FlightAware Approximate